»·PEaware :: UAL1763 KIAD-KSFO

UAL1763 :: KIAD-KSFO

FLIGHT INFORMATION

Flight Status: Arrived
Operator:
United Airlines
More flights by this operator :: More flights under this callsign
Pilot: Jac C. (16067)
Aircraft: BOEING 737-900
(B739)
More flights by this aircraft type
Origin: KIAD Washington Dulles Intl
United States
Destination: KSFO San Francisco Intl
United States
More flights between these airports :: More routes between these airports
Route: +BUNZZ3 RAMAY Q72 HACKS FYLLS CUBAT PIA ROTTN SPAWN/N0459F340 LBF CHE GAROT INYOE DYAMD3
File this flight plan on PilotEdge
Remarks: PBN / A1B1C1D1S1S2 DOF / 180601 REG / N66841 EET / KZID0025 KZAU0059 KZMP0148 KZDV0224 KZLC0333 KZOA0431 OPR / UAL PER / D RMK / TCAS SIMBRIEF
Altitude:
(Current/Filed)
32,000ft
Speed:
(Current/Filed)
466kts
Departed: 01-Jun-18 02:07 PM
Arrived: 01-Jun-18 08:03 PM
Distance/Time
Traveled:
2096nm/5:56
Distance/Time
To Go:
Arrived

Flight Plot

Page will automatically refresh every two minutes.

Flight plan parsing failed; only flown route is shown


Map Options




Map Legend


Flown Route
Filed Route
Departure Airport
Arrival Airport
Navaid (VOR, NDB)
Fix

Horizontal Profiles

Position Reports

Time Latitude Longitude Heading Altitude Ground
Speed
01-Jun-18 14:02 38.944221 -77.454966 269 319ft 5kts
01-Jun-18 14:03 38.942161 -77.456172 180 319ft 13kts
01-Jun-18 14:04 38.939158 -77.456221 179 319ft 12kts
01-Jun-18 14:05 38.936598 -77.455396 129 319ft 6kts
01-Jun-18 14:06 38.934709 -77.455587 201 319ft 3kts
01-Jun-18 14:07 38.935817 -77.463292 290 320ft 98kts
01-Jun-18 14:08 38.952841 -77.518354 279 1712ft 196kts
01-Jun-18 14:09 38.936547 -77.586791 246 3235ft 235kts
01-Jun-18 14:10 38.911241 -77.667236 249 6425ft 244kts
01-Jun-18 14:11 38.890710 -77.751943 264 9478ft 249kts
01-Jun-18 14:12 38.881385 -77.843804 265 11555ft 286kts
01-Jun-18 14:13 38.881889 -77.951522 286 13507ft 312kts
01-Jun-18 14:14 38.912843 -78.057490 290 15978ft 320kts
01-Jun-18 14:15 38.945557 -78.165114 290 18238ft 327kts
01-Jun-18 14:16 38.964348 -78.281022 276 20176ft 337kts
01-Jun-18 14:17 38.972647 -78.402610 276 21880ft 346kts
01-Jun-18 14:18 38.980592 -78.527267 276 23367ft 354kts
01-Jun-18 14:19 38.988483 -78.654995 276 24706ft 360kts
01-Jun-18 14:20 38.996916 -78.784308 276 25897ft 366kts
01-Jun-18 14:21 39.005059 -78.915540 276 26960ft 371kts
01-Jun-18 14:22 39.012782 -79.048533 276 28116ft 370kts
01-Jun-18 14:23 39.020311 -79.179915 276 29333ft 365kts
01-Jun-18 14:24 39.028685 -79.309145 276 30366ft 362kts
01-Jun-18 14:25 39.036789 -79.437319 277 31294ft 359kts
01-Jun-18 14:26 39.044721 -79.565264 276 31767ft 359kts
01-Jun-18 14:27 39.052861 -79.692485 277 31770ft 356kts
01-Jun-18 14:28 39.059516 -79.798400 276 31770ft 357kts
01-Jun-18 14:29 39.067456 -79.925937 277 31771ft 357kts
01-Jun-18 14:30 39.075094 -80.053232 276 31771ft 358kts
01-Jun-18 14:31 39.082372 -80.181069 275 31770ft 358kts
01-Jun-18 14:32 39.090680 -80.330536 275 31770ft 358kts
01-Jun-18 14:33 39.097329 -80.458317 275 31769ft 358kts
01-Jun-18 14:34 39.103824 -80.586505 275 31769ft 358kts
01-Jun-18 14:35 39.110506 -80.714319 275 31769ft 359kts
01-Jun-18 14:36 39.117174 -80.842494 275 31770ft 359kts
01-Jun-18 14:37 39.123306 -80.971004 274 31772ft 359kts
01-Jun-18 14:38 39.129208 -81.077894 279 31775ft 359kts
01-Jun-18 14:39 39.155327 -81.201685 285 31779ft 359kts
01-Jun-18 14:40 39.183890 -81.325151 285 31785ft 358kts
01-Jun-18 14:41 39.212385 -81.448291 285 31788ft 359kts
01-Jun-18 14:42 39.241106 -81.571338 285 31787ft 358kts
01-Jun-18 14:43 39.270011 -81.694828 285 31782ft 358kts
01-Jun-18 14:44 39.298549 -81.817992 285 31771ft 358kts
01-Jun-18 14:45 39.326996 -81.941672 285 31762ft 358kts
01-Jun-18 14:46 39.355127 -82.064738 285 31757ft 358kts
01-Jun-18 14:47 39.383208 -82.188306 284 31755ft 358kts
01-Jun-18 14:48 39.411228 -82.312305 284 31756ft 358kts
01-Jun-18 14:49 39.439073 -82.436218 284 31760ft 360kts
01-Jun-18 14:50 39.466820 -82.560381 284 31759ft 359kts
01-Jun-18 14:51 39.494519 -82.685013 284 31756ft 359kts
01-Jun-18 14:52 39.522002 -82.809384 284 31749ft 360kts
01-Jun-18 14:53 39.549526 -82.934635 284 31740ft 361kts
01-Jun-18 14:54 39.576826 -83.059574 283 31737ft 361kts
01-Jun-18 14:55 39.604009 -83.184701 283 31737ft 361kts
01-Jun-18 14:56 39.631146 -83.310339 283 31738ft 361kts
01-Jun-18 14:57 39.658072 -83.435707 283 31736ft 361kts
01-Jun-18 14:58 39.684856 -83.561144 283 31725ft 361kts
01-Jun-18 14:59 39.711605 -83.687148 283 31726ft 361kts
01-Jun-18 15:00 39.738072 -83.812567 282 31727ft 360kts
01-Jun-18 15:01 39.764470 -83.938389 282 31719ft 360kts
01-Jun-18 15:02 39.790649 -84.063906 282 31710ft 360kts
01-Jun-18 15:03 39.816674 -84.189432 282 31719ft 360kts
01-Jun-18 15:04 39.842928 -84.315431 282 31726ft 360kts
01-Jun-18 15:05 39.868687 -84.441507 282 31728ft 361kts
01-Jun-18 15:06 39.894239 -84.567792 282 31732ft 361kts
01-Jun-18 15:07 39.918570 -84.694870 280 31739ft 361kts
01-Jun-18 15:08 39.940993 -84.822540 280 31738ft 362kts
01-Jun-18 15:09 39.963362 -84.950713 280 31742ft 362kts
01-Jun-18 15:10 39.985612 -85.078598 280 31744ft 362kts
01-Jun-18 15:11 40.008216 -85.206327 279 31748ft 360kts
01-Jun-18 15:12 40.026593 -85.311856 279 31757ft 360kts
01-Jun-18 15:13 40.048572 -85.439369 279 31764ft 360kts
01-Jun-18 15:14 40.070385 -85.567010 279 31769ft 361kts
01-Jun-18 15:15 40.092166 -85.695456 279 31770ft 362kts
01-Jun-18 15:16 40.113745 -85.823643 279 31774ft 361kts
01-Jun-18 15:17 40.135243 -85.952289 279 31790ft 361kts
01-Jun-18 15:18 40.156636 -86.080552 279 31797ft 361kts
01-Jun-18 15:19 40.177934 -86.208797 278 31805ft 361kts
01-Jun-18 15:20 40.198856 -86.337665 278 31813ft 361kts
01-Jun-18 15:21 40.219562 -86.465992 278 31830ft 360kts
01-Jun-18 15:22 40.239304 -86.594416 277 31839ft 360kts
01-Jun-18 15:23 40.258631 -86.723457 277 31839ft 360kts
01-Jun-18 15:24 40.277730 -86.852054 277 31841ft 359kts
01-Jun-18 15:25 40.297099 -86.980916 277 31844ft 360kts
01-Jun-18 15:26 40.316423 -87.109501 277 31846ft 360kts
01-Jun-18 15:27 40.335469 -87.238258 276 31851ft 360kts
01-Jun-18 15:28 40.354376 -87.367477 276 31856ft 360kts
01-Jun-18 15:29 40.373036 -87.496255 276 31859ft 359kts
01-Jun-18 15:30 40.391524 -87.624975 276 31863ft 359kts
01-Jun-18 15:31 40.409915 -87.754123 276 31879ft 359kts
01-Jun-18 15:32 40.428097 -87.882871 276 31892ft 359kts
01-Jun-18 15:33 40.446132 -88.011659 275 31903ft 359kts
01-Jun-18 15:34 40.464110 -88.141139 275 31907ft 360kts
01-Jun-18 15:35 40.481943 -88.270710 275 31913ft 361kts
01-Jun-18 15:36 40.499690 -88.400750 275 31922ft 361kts
01-Jun-18 15:37 40.517245 -88.530563 275 31927ft 361kts
01-Jun-18 15:38 40.534676 -88.660562 275 31931ft 361kts
01-Jun-18 15:39 40.552045 -88.791263 274 31932ft 363kts
01-Jun-18 15:40 40.569266 -88.922027 274 31932ft 363kts
01-Jun-18 15:41 40.586348 -89.052945 274 31937ft 363kts
01-Jun-18 15:42 40.603353 -89.184454 274 31944ft 364kts
01-Jun-18 15:43 40.620163 -89.315680 274 31957ft 364kts
01-Jun-18 15:44 40.637159 -89.447441 274 31982ft 364kts
01-Jun-18 15:45 40.653663 -89.578946 273 31987ft 364kts
01-Jun-18 15:46 40.669870 -89.710475 273 31990ft 364kts
01-Jun-18 15:47 40.685540 -89.842482 272 31991ft 363kts
01-Jun-18 15:48 40.698265 -89.974432 272 31995ft 363kts
01-Jun-18 15:49 40.710962 -90.106603 272 32003ft 364kts
01-Jun-18 15:50 40.723620 -90.239395 272 32011ft 364kts
01-Jun-18 15:51 40.736772 -90.371693 272 32015ft 364kts
01-Jun-18 15:52 40.749644 -90.504823 272 32022ft 365kts
01-Jun-18 15:53 40.762195 -90.637244 272 32026ft 364kts
01-Jun-18 15:54 40.774555 -90.769718 272 32032ft 364kts
01-Jun-18 15:55 40.786788 -90.902682 272 32032ft 364kts
01-Jun-18 15:56 40.798824 -91.035265 271 32032ft 364kts
01-Jun-18 15:57 40.810690 -91.167719 272 32032ft 363kts
01-Jun-18 15:58 40.822438 -91.300595 272 32044ft 363kts
01-Jun-18 15:59 40.833989 -91.433058 272 32064ft 363kts
01-Jun-18 16:00 40.845442 -91.566137 272 32107ft 368kts
01-Jun-18 16:01 40.856957 -91.701844 272 32727ft 372kts
01-Jun-18 16:02 40.868296 -91.837400 272 33436ft 372kts
01-Jun-18 16:03 40.879531 -91.973658 272 34064ft 372kts
01-Jun-18 16:04 40.890608 -92.110074 272 34084ft 373kts
01-Jun-18 16:05 40.901488 -92.245934 272 34090ft 372kts
01-Jun-18 16:06 40.912252 -92.382430 272 34096ft 372kts
01-Jun-18 16:07 40.922839 -92.518795 272 34104ft 373kts
01-Jun-18 16:08 40.933292 -92.655566 272 34110ft 373kts
01-Jun-18 16:09 40.943555 -92.791932 272 34110ft 373kts
01-Jun-18 16:10 40.953673 -92.928607 272 34112ft 374kts
01-Jun-18 16:11 40.963660 -93.065689 272 34123ft 373kts
01-Jun-18 16:12 40.973747 -93.202266 272 34125ft 373kts
01-Jun-18 16:13 40.983278 -93.338822 272 34129ft 373kts
01-Jun-18 16:14 40.992471 -93.473897 272 34129ft 373kts
01-Jun-18 16:15 40.998689 -93.593260 270 34129ft 373kts
01-Jun-18 16:16 41.002879 -93.730295 270 34130ft 373kts
01-Jun-18 16:17 41.006985 -93.867824 270 34132ft 373kts
01-Jun-18 16:18 41.011096 -94.004758 270 34142ft 373kts
01-Jun-18 16:19 41.015587 -94.142447 270 34152ft 373kts
01-Jun-18 16:20 41.019711 -94.279531 270 34158ft 373kts
01-Jun-18 16:21 41.023592 -94.416872 270 34160ft 374kts
01-Jun-18 16:22 41.027288 -94.554765 270 34164ft 374kts
01-Jun-18 16:23 41.030790 -94.692156 270 34175ft 373kts
01-Jun-18 16:24 41.034125 -94.829527 270 34187ft 373kts
01-Jun-18 16:25 41.037302 -94.967278 270 34194ft 373kts
01-Jun-18 16:26 41.040309 -95.104891 270 34208ft 374kts
01-Jun-18 16:27 41.043164 -95.242910 270 34209ft 374kts
01-Jun-18 16:28 41.045586 -95.366927 270 34209ft 374kts
01-Jun-18 16:29 41.048117 -95.504468 270 34213ft 375kts
01-Jun-18 16:30 41.050496 -95.642789 270 34217ft 374kts
01-Jun-18 16:31 41.052703 -95.780632 270 34219ft 375kts
01-Jun-18 16:32 41.054589 -95.907345 270 34220ft 375kts
01-Jun-18 16:33 41.056475 -96.045514 270 34224ft 375kts
01-Jun-18 16:34 41.058216 -96.183950 271 34235ft 375kts
01-Jun-18 16:35 41.059783 -96.321950 270 34240ft 375kts
01-Jun-18 16:36 41.061182 -96.459969 270 34245ft 375kts
01-Jun-18 16:37 41.062418 -96.598001 270 34249ft 373kts
01-Jun-18 16:38 41.063485 -96.735507 270 34253ft 373kts
01-Jun-18 16:39 41.064388 -96.872991 270 34257ft 373kts
01-Jun-18 16:40 41.065127 -97.010888 270 34259ft 373kts
01-Jun-18 16:41 41.065703 -97.147878 270 34262ft 372kts
01-Jun-18 16:42 41.066118 -97.285353 270 34264ft 372kts
01-Jun-18 16:43 41.066369 -97.422290 270 34267ft 372kts
01-Jun-18 16:44 41.066458 -97.559194 270 34269ft 372kts
01-Jun-18 16:45 41.066385 -97.696540 270 34271ft 372kts
01-Jun-18 16:46 41.066149 -97.833385 270 34274ft 372kts
01-Jun-18 16:47 41.066027 -97.970536 270 34276ft 373kts
01-Jun-18 16:48 41.065444 -98.107945 270 34279ft 371kts
01-Jun-18 16:49 41.064555 -98.244508 270 34279ft 371kts
01-Jun-18 16:50 41.064071 -98.358688 271 34278ft 370kts
01-Jun-18 16:51 41.064397 -98.494788 271 34279ft 370kts
01-Jun-18 16:52 41.064466 -98.630976 271 34278ft 369kts
01-Jun-18 16:53 41.064339 -98.767486 271 34277ft 370kts
01-Jun-18 16:54 41.064692 -98.903368 271 34277ft 368kts
01-Jun-18 16:55 41.064688 -99.038941 271 34276ft 368kts
01-Jun-18 16:56 41.064416 -99.174928 271 34276ft 368kts
01-Jun-18 16:57 41.063946 -99.310400 271 34273ft 368kts
01-Jun-18 16:58 41.063299 -99.445837 271 34272ft 368kts
01-Jun-18 16:59 41.062490 -99.581706 271 34271ft 368kts
01-Jun-18 17:00 41.061521 -99.717113 270 34269ft 368kts
01-Jun-18 17:01 41.060391 -99.852892 270 34266ft 368kts
01-Jun-18 17:02 41.059106 -99.988216 270 34264ft 367kts
01-Jun-18 17:03 41.057668 -100.123074 270 34261ft 365kts
01-Jun-18 17:04 41.056069 -100.258184 270 34257ft 366kts
01-Jun-18 17:05 41.054593 -100.392798 270 34254ft 365kts
01-Jun-18 17:06 41.052672 -100.527454 270 34251ft 364kts
01-Jun-18 17:07 41.050450 -100.661593 270 34250ft 364kts
01-Jun-18 17:08 41.046914 -100.795610 267 34250ft 365kts
01-Jun-18 17:09 41.039378 -100.929582 267 34250ft 363kts
01-Jun-18 17:10 41.031780 -101.063032 267 34252ft 364kts
01-Jun-18 17:11 41.024083 -101.196240 267 34254ft 362kts
01-Jun-18 17:12 41.016940 -101.329574 267 34274ft 364kts
01-Jun-18 17:13 41.009339 -101.464773 267 34693ft 370kts
01-Jun-18 17:14 41.001450 -101.600511 267 35234ft 371kts
01-Jun-18 17:15 40.993332 -101.736562 267 35789ft 370kts
01-Jun-18 17:16 40.985061 -101.872253 266 36225ft 371kts
01-Jun-18 17:17 40.976549 -102.009048 266 36264ft 370kts
01-Jun-18 17:18 40.967976 -102.144181 266 36268ft 369kts
01-Jun-18 17:19 40.959246 -102.279268 266 36272ft 369kts
01-Jun-18 17:20 40.950324 -102.414793 266 36278ft 369kts
01-Jun-18 17:21 40.941296 -102.549547 266 36282ft 367kts
01-Jun-18 17:22 40.932124 -102.684055 266 36284ft 367kts
01-Jun-18 17:23 40.922767 -102.818936 266 36287ft 367kts
01-Jun-18 17:24 40.913292 -102.953241 266 36288ft 367kts
01-Jun-18 17:25 40.903632 -103.087874 265 36291ft 367kts
01-Jun-18 17:26 40.893855 -103.221982 265 36292ft 367kts
01-Jun-18 17:27 40.883925 -103.355975 265 36294ft 366kts
01-Jun-18 17:28 40.873814 -103.490313 265 36296ft 366kts
01-Jun-18 17:29 40.863587 -103.624105 265 36299ft 366kts
01-Jun-18 17:30 40.853201 -103.757856 265 36300ft 365kts
01-Jun-18 17:31 40.842700 -103.891093 265 36300ft 365kts
01-Jun-18 17:32 40.832058 -104.024223 265 36297ft 364kts
01-Jun-18 17:33 40.821238 -104.157465 265 36294ft 364kts
01-Jun-18 17:34 40.810306 -104.290211 264 36290ft 364kts
01-Jun-18 17:35 40.799223 -104.422905 264 36287ft 364kts
01-Jun-18 17:36 40.787955 -104.555953 264 36285ft 364kts
01-Jun-18 17:37 40.776582 -104.688428 264 36281ft 364kts
01-Jun-18 17:38 40.764981 -104.821657 264 36281ft 364kts
01-Jun-18 17:39 40.753283 -104.954279 264 36279ft 364kts
01-Jun-18 17:40 40.741438 -105.086790 264 36281ft 364kts
01-Jun-18 17:41 40.729390 -105.219830 264 36278ft 365kts
01-Jun-18 17:42 40.717219 -105.352481 264 36279ft 365kts
01-Jun-18 17:43 40.704933 -105.484704 263 36280ft 363kts
01-Jun-18 17:44 40.692458 -105.617248 263 36280ft 364kts
01-Jun-18 17:45 40.679857 -105.749525 263 36284ft 364kts
01-Jun-18 17:46 40.667063 -105.882150 263 36287ft 364kts
01-Jun-18 17:47 40.654166 -106.014256 263 36286ft 364kts
01-Jun-18 17:48 40.641109 -106.146413 262 36288ft 363kts
01-Jun-18 17:49 40.627891 -106.278586 262 36288ft 363kts
01-Jun-18 17:50 40.614546 -106.410498 262 36283ft 364kts
01-Jun-18 17:51 40.600987 -106.542993 262 36272ft 365kts
01-Jun-18 17:52 40.587298 -106.675241 262 36260ft 364kts
01-Jun-18 17:53 40.573500 -106.807032 262 36252ft 365kts
01-Jun-18 17:54 40.559704 -106.939573 262 36251ft 365kts
01-Jun-18 17:55 40.545615 -107.071518 261 36260ft 365kts
01-Jun-18 17:56 40.531145 -107.203691 261 36268ft 366kts
01-Jun-18 17:57 40.515452 -107.335969 258 36264ft 365kts
01-Jun-18 17:58 40.491918 -107.465775 256 36252ft 365kts
01-Jun-18 17:59 40.468101 -107.595836 256 36250ft 365kts
01-Jun-18 18:00 40.444375 -107.725415 256 36248ft 365kts
01-Jun-18 18:01 40.421122 -107.855346 256 36238ft 366kts
01-Jun-18 18:02 40.397553 -107.985622 256 36229ft 366kts
01-Jun-18 18:03 40.373842 -108.115299 256 36223ft 366kts
01-Jun-18 18:04 40.349947 -108.244847 256 36217ft 366kts
01-Jun-18 18:05 40.325806 -108.374742 256 36211ft 366kts
01-Jun-18 18:06 40.301566 -108.504277 256 36204ft 367kts
01-Jun-18 18:07 40.277082 -108.634239 255 36198ft 366kts
01-Jun-18 18:08 40.252537 -108.763637 255 36194ft 366kts
01-Jun-18 18:09 40.227828 -108.893054 255 36193ft 367kts
01-Jun-18 18:10 40.202854 -109.022990 255 36196ft 367kts
01-Jun-18 18:11 40.177818 -109.152409 255 36200ft 368kts
01-Jun-18 18:12 40.152582 -109.282025 255 36205ft 368kts
01-Jun-18 18:13 40.127123 -109.411927 255 36209ft 368kts
01-Jun-18 18:14 40.101609 -109.541290 254 36212ft 368kts
01-Jun-18 18:15 40.075856 -109.671024 254 36216ft 368kts
01-Jun-18 18:16 40.050044 -109.800223 254 36214ft 368kts
01-Jun-18 18:17 40.024090 -109.929338 254 36213ft 368kts
01-Jun-18 18:18 39.997912 -110.058753 254 36212ft 368kts
01-Jun-18 18:19 39.971679 -110.187624 254 36211ft 368kts
01-Jun-18 18:20 39.945312 -110.316364 254 36208ft 368kts
01-Jun-18 18:21 39.918714 -110.445436 253 36203ft 368kts
01-Jun-18 18:22 39.892053 -110.573993 253 36204ft 368kts
01-Jun-18 18:23 39.865139 -110.703009 253 36205ft 369kts
01-Jun-18 18:24 39.838130 -110.831682 253 36203ft 369kts
01-Jun-18 18:25 39.810960 -110.960371 253 36201ft 370kts
01-Jun-18 18:26 39.783506 -111.089608 253 36195ft 370kts
01-Jun-18 18:27 39.756006 -111.218294 253 36187ft 371kts
01-Jun-18 18:28 39.728284 -111.347237 253 36178ft 371kts
01-Jun-18 18:29 39.700346 -111.476418 253 36170ft 370kts
01-Jun-18 18:30 39.672349 -111.605109 252 36163ft 371kts
01-Jun-18 18:31 39.644087 -111.734261 252 36155ft 372kts
01-Jun-18 18:32 39.615748 -111.863011 252 36145ft 371kts
01-Jun-18 18:33 39.587268 -111.991652 252 36134ft 371kts
01-Jun-18 18:34 39.558554 -112.120601 252 36132ft 371kts
01-Jun-18 18:35 39.529773 -112.249099 252 36127ft 371kts
01-Jun-18 18:36 39.500878 -112.377386 252 36123ft 371kts
01-Jun-18 18:37 39.471820 -112.505668 252 36121ft 371kts
01-Jun-18 18:38 39.442710 -112.633453 252 36120ft 370kts
01-Jun-18 18:39 39.413355 -112.761598 251 36121ft 371kts
01-Jun-18 18:40 39.384132 -112.889267 251 36122ft 371kts
01-Jun-18 18:41 39.354664 -113.016837 251 36118ft 371kts
01-Jun-18 18:42 39.324743 -113.144637 251 36109ft 371kts
01-Jun-18 18:43 39.294992 -113.271954 251 36101ft 371kts
01-Jun-18 18:44 39.265819 -113.399545 251 36093ft 371kts
01-Jun-18 18:45 39.236348 -113.527384 251 36089ft 371kts
01-Jun-18 18:46 39.206809 -113.654666 251 36088ft 371kts
01-Jun-18 18:47 39.177576 -113.782457 251 36085ft 371kts
01-Jun-18 18:48 39.148201 -113.909699 251 36081ft 371kts
01-Jun-18 18:49 39.118512 -114.037074 251 36078ft 372kts
01-Jun-18 18:50 39.088600 -114.164523 250 36074ft 371kts
01-Jun-18 18:51 39.058632 -114.291440 250 36073ft 371kts
01-Jun-18 18:52 39.028497 -114.418321 250 36072ft 370kts
01-Jun-18 18:53 38.998240 -114.545030 250 36071ft 370kts
01-Jun-18 18:54 38.967935 -114.671252 250 36071ft 370kts
01-Jun-18 18:55 38.937492 -114.797374 250 36070ft 370kts
01-Jun-18 18:56 38.906811 -114.923809 249 36066ft 370kts
01-Jun-18 18:57 38.876084 -115.049756 249 36064ft 370kts
01-Jun-18 18:58 38.845129 -115.175974 249 36062ft 370kts
01-Jun-18 18:59 38.814144 -115.301652 249 36059ft 370kts
01-Jun-18 19:00 38.788205 -115.406368 249 36057ft 370kts
01-Jun-18 19:01 38.751642 -115.553209 249 36054ft 370kts
01-Jun-18 19:02 38.725474 -115.657749 249 36047ft 370kts
01-Jun-18 19:03 38.693978 -115.782995 249 36043ft 370kts
01-Jun-18 19:04 38.662237 -115.908572 249 36040ft 370kts
01-Jun-18 19:05 38.630503 -116.033489 249 36032ft 369kts
01-Jun-18 19:06 38.598678 -116.158115 248 36023ft 369kts
01-Jun-18 19:07 38.566609 -116.283082 248 36022ft 369kts
01-Jun-18 19:08 38.534509 -116.407546 248 36022ft 369kts
01-Jun-18 19:09 38.502157 -116.532351 248 36019ft 369kts
01-Jun-18 19:10 38.469776 -116.656646 248 36015ft 369kts
01-Jun-18 19:11 38.437276 -116.780789 248 36015ft 369kts
01-Jun-18 19:12 38.404576 -116.905089 248 36015ft 368kts
01-Jun-18 19:13 38.371890 -117.028722 248 36016ft 369kts
01-Jun-18 19:14 38.339016 -117.152467 247 36012ft 368kts
01-Jun-18 19:15 38.305939 -117.276365 247 36011ft 369kts
01-Jun-18 19:16 38.272850 -117.399711 247 36008ft 369kts
01-Jun-18 19:17 38.239548 -117.523258 247 36002ft 368kts
01-Jun-18 19:18 38.215755 -117.611174 247 35996ft 368kts
01-Jun-18 19:19 38.197178 -117.679605 247 35991ft 368kts
01-Jun-18 19:20 38.163630 -117.802730 247 35981ft 368kts
01-Jun-18 19:21 38.130073 -117.925311 247 35971ft 368kts
01-Jun-18 19:22 38.096393 -118.047761 247 35963ft 367kts
01-Jun-18 19:23 38.062481 -118.170487 247 35956ft 367kts
01-Jun-18 19:24 38.028566 -118.292651 247 35949ft 367kts
01-Jun-18 19:25 37.994539 -118.415291 247 35972ft 368kts
01-Jun-18 19:26 37.960442 -118.537283 247 35978ft 367kts
01-Jun-18 19:27 37.926041 -118.658999 247 35985ft 367kts
01-Jun-18 19:28 37.894826 -118.782521 255 35994ft 371kts
01-Jun-18 19:29 37.879349 -118.911910 256 36011ft 372kts
01-Jun-18 19:30 37.864183 -119.041335 256 36012ft 372kts
01-Jun-18 19:31 37.848865 -119.171269 256 36017ft 372kts
01-Jun-18 19:32 37.834014 -119.300571 256 36023ft 372kts
01-Jun-18 19:33 37.818841 -119.430293 256 36029ft 372kts
01-Jun-18 19:34 37.803479 -119.559531 256 36039ft 372kts
01-Jun-18 19:35 37.787965 -119.688525 256 36048ft 371kts
01-Jun-18 19:36 37.772236 -119.818017 256 36064ft 373kts
01-Jun-18 19:37 37.756400 -119.947142 255 36080ft 371kts
01-Jun-18 19:38 37.740782 -120.075376 255 35405ft 361kts
01-Jun-18 19:39 37.725472 -120.197800 254 33586ft 343kts
01-Jun-18 19:40 37.710719 -120.313804 254 31855ft 327kts
01-Jun-18 19:41 37.696826 -120.424877 255 30201ft 314kts
01-Jun-18 19:42 37.684451 -120.532403 255 28594ft 303kts
01-Jun-18 19:43 37.672138 -120.636694 255 27026ft 306kts
01-Jun-18 19:44 37.658901 -120.748117 256 24156ft 342kts
01-Jun-18 19:45 37.644666 -120.866918 256 21797ft 337kts
01-Jun-18 19:46 37.630455 -120.982339 255 19790ft 328kts
01-Jun-18 19:47 37.615487 -121.094980 255 17847ft 321kts
01-Jun-18 19:48 37.600581 -121.205063 255 15904ft 316kts
01-Jun-18 19:49 37.586969 -121.314121 257 14068ft 313kts
01-Jun-18 19:50 37.574931 -121.419346 256 12732ft 283kts
01-Jun-18 19:51 37.563705 -121.515202 256 11731ft 273kts
01-Jun-18 19:52 37.552441 -121.610985 258 10727ft 278kts
01-Jun-18 19:53 37.532817 -121.701169 249 9784ft 258kts
01-Jun-18 19:54 37.511621 -121.788793 250 9172ft 268kts
01-Jun-18 19:55 37.485647 -121.893891 249 7870ft 266kts
01-Jun-18 19:56 37.463056 -121.981191 254 6560ft 260kts
01-Jun-18 19:57 37.482728 -122.053087 297 5308ft 277kts
01-Jun-18 19:58 37.518549 -122.136656 297 3869ft 263kts
01-Jun-18 19:59 37.551403 -122.214719 296 2537ft 238kts
01-Jun-18 20:00 37.578592 -122.279414 295 1409ft 180kts
01-Jun-18 20:01 37.599156 -122.328375 295 575ft 148kts
01-Jun-18 20:02 37.618393 -122.374218 297 21ft 120kts
01-Jun-18 20:03 37.623570 -122.389379 208 21ft 14kts
01-Jun-18 20:04 37.621283 -122.385895 117 21ft 10kts
01-Jun-18 20:05 37.619482 -122.382518 208 21ft 10kts
01-Jun-18 20:06 37.618900 -122.383677 280 21ft 0kts

Navigation Log

Ident Type
Flight plan parsing failed, navigation log unavailable